ADDS TAF Board (Experimental) INFO

IDs: Format: Expanded Condensed

Updated at: 2138 UTC 22 Oct 2014

KBWI - Baltimore-Washington, MD, US

Issued at 2050 UTC 22 Oct 2014
Time2116Z22/22Z22/23Z23/00Z23/01Z23/02Z23/03Z23/04Z23/05Z23/06Z23/07Z23/08Z23/09Z23/10Z
TypeOBSPRVLPRVLPRVLPRVLPRVLPRVLPRVLPRVLPRVLPRVLPRVLPRVLPRVL
VIS106>6>6>6>6>6>6>6>6>6>6>6>6
CIG3020252540404040404040404040
CoverOVCOVCOVCOVCOVCOVCOVCOVCOVCOVCOVCOVCOVCOVC
FltCatMVFRMVFRMVFRMVFRVFRVFRVFRVFRVFRVFRVFRVFRVFRVFR
WX-RA-SHRA------------------------
WDir330320330330340340340340340340340340340340
WSpd1015171717171717171717171717
WGst19--------------------------
R04/22
XWnd914151514141414141414141414
XGst17--------------------------
HWnd548810101010101010101010
HGst9--------------------------
R10/28
XWnd811141416161616161616161616
XGst16--------------------------
HWnd-6-10-10-10-7-7-7-7-7-7-7-7-7-7
HGst-11--------------------------
R15/33
XWnd1-1225555555555
XGst2--------------------------
HWnd-10-15-17-17-16-16-16-16-16-16-16-16-16-16
HGst-19--------------------------
Raw TAF
KBWI 222050Z 2221/2324 32015KT 6SM -SHRA SCT015 OVC020
  FM222300 33017KT P6SM SCT015 OVC025
  FM230100 34017KT P6SM SCT015 OVC040
  FM231800 32017KT P6SM BKN025
  FM232200 32015KT P6SM BKN050


Raw METAR
KBWI 222116Z 33010G19KT 10SM -RA SCT023 OVC030 12/09 A2990 RMK AO2 P0000
KBWI 222054Z COR 31009G21KT 10SM -RA SCT018 OVC026 12/09 A2991 RMK AO2 RAE01B52 SLP126 P0000 60005 T01220094 55000

TAF Board Legend

Hazard VFR MVFR IFR LIFR
Visibility (sm) >5 3≤X≤5 1≤X<3 <1
Ceiling (100 ft) >30 10≤X≤30 5≤X<10 <5
Wind Speed (kt) <10 10≤X<20 20≤X<30 ≥30
Wind Gust (kt) <15 15≤X<25 25≤X<35 ≥35
Weather No Wx Reported VCTS,-TS,-FZRA TS,FZRA +TS,+FZRA


Page loaded:  21:38 UTC  |   02:38 PM Pacific  |   03:38 PM Mountain  |   04:38 PM Central  |   05:38 PM Eastern

 

ADVISORIES

FORECASTS

FORECASTS

OBSERVATIONS

USER TOOLS

ABOUT US